sensor_id;sensor_type;location;lat;lon;timestamp;temperature;humidity
13458;DHT22;6801;53.018;11.560;2023-06-14T00:02:16;20.40;43.70
13458;DHT22;6801;53.018;11.560;2023-06-14T00:04:44;20.40;43.90
13458;DHT22;6801;53.018;11.560;2023-06-14T00:07:11;20.30;43.80
13458;DHT22;6801;53.018;11.560;2023-06-14T00:09:39;20.30;44.00
13458;DHT22;6801;53.018;11.560;2023-06-14T00:12:07;20.30;44.20
13458;DHT22;6801;53.018;11.560;2023-06-14T00:14:36;20.20;44.20
13458;DHT22;6801;53.018;11.560;2023-06-14T00:17:04;20.10;44.30
13458;DHT22;6801;53.018;11.560;2023-06-14T00:19:33;20.10;44.50
13458;DHT22;6801;53.018;11.560;2023-06-14T00:22:02;20.00;45.00
13458;DHT22;6801;53.018;11.560;2023-06-14T00:24:30;20.00;44.90
13458;DHT22;6801;53.018;11.560;2023-06-14T00:26:57;20.00;44.80
13458;DHT22;6801;53.018;11.560;2023-06-14T00:29:25;19.90;45.20
13458;DHT22;6801;53.018;11.560;2023-06-14T00:31:54;19.90;45.10
13458;DHT22;6801;53.018;11.560;2023-06-14T00:34:21;19.80;45.10
13458;DHT22;6801;53.018;11.560;2023-06-14T00:36:49;19.80;44.90
13458;DHT22;6801;53.018;11.560;2023-06-14T00:39:16;19.70;44.80
13458;DHT22;6801;53.018;11.560;2023-06-14T00:41:44;19.70;44.90
13458;DHT22;6801;53.018;11.560;2023-06-14T00:44:11;19.70;45.10
13458;DHT22;6801;53.018;11.560;2023-06-14T00:46:41;19.60;45.00
13458;DHT22;6801;53.018;11.560;2023-06-14T00:49:10;19.60;45.40
13458;DHT22;6801;53.018;11.560;2023-06-14T00:51:39;19.50;45.30
13458;DHT22;6801;53.018;11.560;2023-06-14T00:54:06;19.50;45.40
13458;DHT22;6801;53.018;11.560;2023-06-14T00:56:35;19.50;45.70
13458;DHT22;6801;53.018;11.560;2023-06-14T00:59:02;19.40;45.60
13458;DHT22;6801;53.018;11.560;2023-06-14T01:01:30;19.40;45.60
13458;DHT22;6801;53.018;11.560;2023-06-14T01:04:00;19.40;45.60
13458;DHT22;6801;53.018;11.560;2023-06-14T01:06:33;19.30;45.60
13458;DHT22;6801;53.018;11.560;2023-06-14T01:09:07;19.30;45.70
13458;DHT22;6801;53.018;11.560;2023-06-14T01:11:43;19.30;45.70
13458;DHT22;6801;53.018;11.560;2023-06-14T01:14:13;19.20;45.80
13458;DHT22;6801;53.018;11.560;2023-06-14T01:16:41;19.20;45.90
13458;DHT22;6801;53.018;11.560;2023-06-14T01:19:10;19.20;46.00
13458;DHT22;6801;53.018;11.560;2023-06-14T01:21:41;19.20;45.90
13458;DHT22;6801;53.018;11.560;2023-06-14T01:24:09;19.10;46.00
13458;DHT22;6801;53.018;11.560;2023-06-14T01:26:38;19.00;46.10
13458;DHT22;6801;53.018;11.560;2023-06-14T01:29:11;19.10;46.10
13458;DHT22;6801;53.018;11.560;2023-06-14T01:31:45;19.00;46.10
13458;DHT22;6801;53.018;11.560;2023-06-14T01:34:12;19.00;46.10
13458;DHT22;6801;53.018;11.560;2023-06-14T01:36:41;19.00;46.10
13458;DHT22;6801;53.018;11.560;2023-06-14T01:39:12;19.00;46.20
13458;DHT22;6801;53.018;11.560;2023-06-14T01:41:40;18.90;46.50
13458;DHT22;6801;53.018;11.560;2023-06-14T01:44:08;18.90;46.30
13458;DHT22;6801;53.018;11.560;2023-06-14T01:46:36;18.90;46.40
13458;DHT22;6801;53.018;11.560;2023-06-14T01:49:03;18.80;46.30
13458;DHT22;6801;53.018;11.560;2023-06-14T01:51:30;18.80;46.30
13458;DHT22;6801;53.018;11.560;2023-06-14T01:53:57;18.80;46.30
13458;DHT22;6801;53.018;11.560;2023-06-14T01:56:27;18.70;46.40
13458;DHT22;6801;53.018;11.560;2023-06-14T01:58:54;18.70;46.40
13458;DHT22;6801;53.018;11.560;2023-06-14T02:01:22;18.60;46.40
13458;DHT22;6801;53.018;11.560;2023-06-14T02:03:49;18.60;46.50
13458;DHT22;6801;53.018;11.560;2023-06-14T02:06:16;18.60;46.50
13458;DHT22;6801;53.018;11.560;2023-06-14T02:08:43;18.50;46.50
13458;DHT22;6801;53.018;11.560;2023-06-14T02:11:10;18.50;46.70
13458;DHT22;6801;53.018;11.560;2023-06-14T02:13:39;18.50;46.70
13458;DHT22;6801;53.018;11.560;2023-06-14T02:16:06;18.50;46.70
13458;DHT22;6801;53.018;11.560;2023-06-14T02:18:33;18.40;47.10
13458;DHT22;6801;53.018;11.560;2023-06-14T02:21:00;18.40;46.90
13458;DHT22;6801;53.018;11.560;2023-06-14T02:23:27;18.30;46.80
13458;DHT22;6801;53.018;11.560;2023-06-14T02:25:54;18.30;46.80
13458;DHT22;6801;53.018;11.560;2023-06-14T02:28:21;18.20;47.20
13458;DHT22;6801;53.018;11.560;2023-06-14T02:30:50;18.20;47.20
13458;DHT22;6801;53.018;11.560;2023-06-14T02:33:17;18.10;47.10
13458;DHT22;6801;53.018;11.560;2023-06-14T02:35:44;18.10;47.20
13458;DHT22;6801;53.018;11.560;2023-06-14T02:38:11;18.00;49.10
13458;DHT22;6801;53.018;11.560;2023-06-14T02:40:38;18.00;50.30
13458;DHT22;6801;53.018;11.560;2023-06-14T02:43:07;18.00;49.70
13458;DHT22;6801;53.018;11.560;2023-06-14T02:45:34;17.90;48.70
13458;DHT22;6801;53.018;11.560;2023-06-14T02:48:03;17.90;49.90
13458;DHT22;6801;53.018;11.560;2023-06-14T02:50:31;17.80;48.70
13458;DHT22;6801;53.018;11.560;2023-06-14T02:52:58;17.80;48.20
13458;DHT22;6801;53.018;11.560;2023-06-14T02:55:25;17.70;49.70
13458;DHT22;6801;53.018;11.560;2023-06-14T02:57:53;17.70;51.30
13458;DHT22;6801;53.018;11.560;2023-06-14T03:00:20;17.70;50.80
13458;DHT22;6801;53.018;11.560;2023-06-14T03:02:49;17.60;51.20
13458;DHT22;6801;53.018;11.560;2023-06-14T03:05:18;17.50;51.30
13458;DHT22;6801;53.018;11.560;2023-06-14T03:07:47;17.50;50.40
13458;DHT22;6801;53.018;11.560;2023-06-14T03:10:16;17.50;52.20
13458;DHT22;6801;53.018;11.560;2023-06-14T03:12:45;17.50;52.50
13458;DHT22;6801;53.018;11.560;2023-06-14T03:15:13;17.50;50.70
13458;DHT22;6801;53.018;11.560;2023-06-14T03:17:45;17.40;50.30
13458;DHT22;6801;53.018;11.560;2023-06-14T03:20:15;17.40;49.90
13458;DHT22;6801;53.018;11.560;2023-06-14T03:22:44;17.30;49.40
13458;DHT22;6801;53.018;11.560;2023-06-14T03:25:13;17.40;49.40
13458;DHT22;6801;53.018;11.560;2023-06-14T03:27:43;17.30;49.30
13458;DHT22;6801;53.018;11.560;2023-06-14T03:30:11;17.40;50.40
13458;DHT22;6801;53.018;11.560;2023-06-14T03:32:38;17.30;51.70
13458;DHT22;6801;53.018;11.560;2023-06-14T03:35:06;17.30;50.90
13458;DHT22;6801;53.018;11.560;2023-06-14T03:37:33;17.30;51.80
13458;DHT22;6801;53.018;11.560;2023-06-14T03:40:02;17.30;53.20
13458;DHT22;6801;53.018;11.560;2023-06-14T03:42:35;17.20;51.20
13458;DHT22;6801;53.018;11.560;2023-06-14T03:45:03;17.20;51.50
13458;DHT22;6801;53.018;11.560;2023-06-14T03:47:31;17.20;52.10
13458;DHT22;6801;53.018;11.560;2023-06-14T03:49:58;17.20;52.80
13458;DHT22;6801;53.018;11.560;2023-06-14T03:52:25;17.20;53.70
13458;DHT22;6801;53.018;11.560;2023-06-14T03:54:52;17.20;54.60
13458;DHT22;6801;53.018;11.560;2023-06-14T03:57:23;17.10;52.90
13458;DHT22;6801;53.018;11.560;2023-06-14T03:59:50;17.20;53.70
13458;DHT22;6801;53.018;11.560;2023-06-14T04:02:17;17.20;53.60
13458;DHT22;6801;53.018;11.560;2023-06-14T04:04:45;17.30;52.70
13458;DHT22;6801;53.018;11.560;2023-06-14T04:07:13;17.40;52.10
13458;DHT22;6801;53.018;11.560;2023-06-14T04:09:40;17.50;51.70
13458;DHT22;6801;53.018;11.560;2023-06-14T04:12:08;17.50;51.50
13458;DHT22;6801;53.018;11.560;2023-06-14T04:14:38;17.60;51.30
13458;DHT22;6801;53.018;11.560;2023-06-14T04:17:07;17.70;51.00
13458;DHT22;6801;53.018;11.560;2023-06-14T04:19:36;17.80;50.30
13458;DHT22;6801;53.018;11.560;2023-06-14T04:22:03;17.90;50.10
13458;DHT22;6801;53.018;11.560;2023-06-14T04:24:33;18.00;50.40
13458;DHT22;6801;53.018;11.560;2023-06-14T04:27:01;18.10;50.20
13458;DHT22;6801;53.018;11.560;2023-06-14T04:29:29;18.20;50.20
13458;DHT22;6801;53.018;11.560;2023-06-14T04:32:03;18.30;50.00
13458;DHT22;6801;53.018;11.560;2023-06-14T04:34:31;18.40;50.10
13458;DHT22;6801;53.018;11.560;2023-06-14T04:37:00;18.40;49.50
13458;DHT22;6801;53.018;11.560;2023-06-14T04:39:31;18.50;49.40
13458;DHT22;6801;53.018;11.560;2023-06-14T04:42:00;18.60;49.30
13458;DHT22;6801;53.018;11.560;2023-06-14T04:44:29;18.60;49.40
13458;DHT22;6801;53.018;11.560;2023-06-14T04:46:59;18.70;49.30
13458;DHT22;6801;53.018;11.560;2023-06-14T04:49:27;18.70;49.00
13458;DHT22;6801;53.018;11.560;2023-06-14T04:51:58;18.70;49.40
13458;DHT22;6801;53.018;11.560;2023-06-14T04:54:27;18.70;49.30
13458;DHT22;6801;53.018;11.560;2023-06-14T04:56:57;18.80;49.20
13458;DHT22;6801;53.018;11.560;2023-06-14T04:59:26;18.70;49.10
13458;DHT22;6801;53.018;11.560;2023-06-14T05:01:53;18.70;49.30
13458;DHT22;6801;53.018;11.560;2023-06-14T05:04:23;18.70;49.70
13458;DHT22;6801;53.018;11.560;2023-06-14T05:06:52;18.70;49.50
13458;DHT22;6801;53.018;11.560;2023-06-14T05:09:21;18.70;49.80
13458;DHT22;6801;53.018;11.560;2023-06-14T05:11:49;18.70;49.80
13458;DHT22;6801;53.018;11.560;2023-06-14T05:14:16;18.70;50.00
13458;DHT22;6801;53.018;11.560;2023-06-14T05:16:44;18.70;50.00
13458;DHT22;6801;53.018;11.560;2023-06-14T05:19:11;18.70;50.10
13458;DHT22;6801;53.018;11.560;2023-06-14T05:21:38;18.70;50.70
13458;DHT22;6801;53.018;11.560;2023-06-14T05:24:07;18.70;50.30
13458;DHT22;6801;53.018;11.560;2023-06-14T05:26:34;18.70;50.30
13458;DHT22;6801;53.018;11.560;2023-06-14T05:29:02;18.70;50.60
13458;DHT22;6801;53.018;11.560;2023-06-14T05:31:29;18.70;50.60
13458;DHT22;6801;53.018;11.560;2023-06-14T05:33:56;18.70;50.50
13458;DHT22;6801;53.018;11.560;2023-06-14T05:36:23;18.70;50.50
13458;DHT22;6801;53.018;11.560;2023-06-14T05:38:50;18.80;50.60
13458;DHT22;6801;53.018;11.560;2023-06-14T05:41:24;18.70;50.80
13458;DHT22;6801;53.018;11.560;2023-06-14T05:43:52;18.80;50.60
13458;DHT22;6801;53.018;11.560;2023-06-14T05:46:19;18.80;50.70
13458;DHT22;6801;53.018;11.560;2023-06-14T05:48:47;18.90;51.30
13458;DHT22;6801;53.018;11.560;2023-06-14T05:51:15;18.90;50.90
13458;DHT22;6801;53.018;11.560;2023-06-14T05:53:44;18.90;51.00
13458;DHT22;6801;53.018;11.560;2023-06-14T05:56:11;18.90;50.90
13458;DHT22;6801;53.018;11.560;2023-06-14T05:58:40;19.00;52.60
13458;DHT22;6801;53.018;11.560;2023-06-14T06:01:07;19.10;52.60
13458;DHT22;6801;53.018;11.560;2023-06-14T06:03:34;19.20;52.00
13458;DHT22;6801;53.018;11.560;2023-06-14T06:06:01;19.20;52.80
13458;DHT22;6801;53.018;11.560;2023-06-14T06:08:28;19.20;51.30
13458;DHT22;6801;53.018;11.560;2023-06-14T06:10:56;19.20;51.20
13458;DHT22;6801;53.018;11.560;2023-06-14T06:13:23;19.30;52.00
13458;DHT22;6801;53.018;11.560;2023-06-14T06:15:52;19.30;52.00
13458;DHT22;6801;53.018;11.560;2023-06-14T06:18:19;19.30;51.80
13458;DHT22;6801;53.018;11.560;2023-06-14T06:20:46;19.40;51.90
13458;DHT22;6801;53.018;11.560;2023-06-14T06:23:13;19.40;51.40
13458;DHT22;6801;53.018;11.560;2023-06-14T06:25:40;19.40;51.30
13458;DHT22;6801;53.018;11.560;2023-06-14T06:28:07;19.50;51.60
13458;DHT22;6801;53.018;11.560;2023-06-14T06:30:34;19.50;51.70
13458;DHT22;6801;53.018;11.560;2023-06-14T06:33:03;19.60;51.50
13458;DHT22;6801;53.018;11.560;2023-06-14T06:35:31;19.70;51.00
13458;DHT22;6801;53.018;11.560;2023-06-14T06:37:59;19.70;51.10
13458;DHT22;6801;53.018;11.560;2023-06-14T06:40:27;19.80;51.40
13458;DHT22;6801;53.018;11.560;2023-06-14T06:42:54;19.90;51.20
13458;DHT22;6801;53.018;11.560;2023-06-14T06:45:21;20.00;51.00
13458;DHT22;6801;53.018;11.560;2023-06-14T06:47:48;20.00;51.10
13458;DHT22;6801;53.018;11.560;2023-06-14T06:50:18;20.10;50.80
13458;DHT22;6801;53.018;11.560;2023-06-14T06:52:45;20.10;50.80
13458;DHT22;6801;53.018;11.560;2023-06-14T06:55:12;20.20;50.60
13458;DHT22;6801;53.018;11.560;2023-06-14T06:57:39;20.40;51.00
13458;DHT22;6801;53.018;11.560;2023-06-14T07:00:07;20.50;50.60
13458;DHT22;6801;53.018;11.560;2023-06-14T07:02:35;20.50;50.50
13458;DHT22;6801;53.018;11.560;2023-06-14T07:05:03;20.50;50.00
13458;DHT22;6801;53.018;11.560;2023-06-14T07:07:31;20.60;49.80
13458;DHT22;6801;53.018;11.560;2023-06-14T07:09:58;20.60;49.60
13458;DHT22;6801;53.018;11.560;2023-06-14T07:12:25;20.80;49.60
13458;DHT22;6801;53.018;11.560;2023-06-14T07:14:52;20.90;49.40
13458;DHT22;6801;53.018;11.560;2023-06-14T07:17:19;21.00;49.10
13458;DHT22;6801;53.018;11.560;2023-06-14T07:19:46;21.20;48.80
13458;DHT22;6801;53.018;11.560;2023-06-14T07:22:15;21.40;48.30
13458;DHT22;6801;53.018;11.560;2023-06-14T07:24:43;21.50;47.90
13458;DHT22;6801;53.018;11.560;2023-06-14T07:27:10;21.50;47.90
13458;DHT22;6801;53.018;11.560;2023-06-14T07:29:38;21.60;47.60
13458;DHT22;6801;53.018;11.560;2023-06-14T07:32:06;21.70;47.60
13458;DHT22;6801;53.018;11.560;2023-06-14T07:34:33;21.90;47.40
13458;DHT22;6801;53.018;11.560;2023-06-14T07:37:00;22.00;47.00
13458;DHT22;6801;53.018;11.560;2023-06-14T07:39:27;22.00;46.90
13458;DHT22;6801;53.018;11.560;2023-06-14T07:41:56;22.10;46.90
13458;DHT22;6801;53.018;11.560;2023-06-14T07:44:23;22.10;46.60
13458;DHT22;6801;53.018;11.560;2023-06-14T07:46:50;22.40;46.20
13458;DHT22;6801;53.018;11.560;2023-06-14T07:49:17;22.40;46.00
13458;DHT22;6801;53.018;11.560;2023-06-14T07:51:44;22.50;45.90
13458;DHT22;6801;53.018;11.560;2023-06-14T07:54:12;22.50;45.50
13458;DHT22;6801;53.018;11.560;2023-06-14T07:56:39;22.50;45.60
13458;DHT22;6801;53.018;11.560;2023-06-14T07:59:07;22.60;45.70
13458;DHT22;6801;53.018;11.560;2023-06-14T08:01:34;22.70;45.30
13458;DHT22;6801;53.018;11.560;2023-06-14T08:04:01;22.80;44.80
13458;DHT22;6801;53.018;11.560;2023-06-14T08:06:28;22.90;44.70
13458;DHT22;6801;53.018;11.560;2023-06-14T08:08:56;22.90;44.80
13458;DHT22;6801;53.018;11.560;2023-06-14T08:11:23;23.00;44.60
13458;DHT22;6801;53.018;11.560;2023-06-14T08:13:50;23.00;44.20
13458;DHT22;6801;53.018;11.560;2023-06-14T08:16:18;23.10;43.60
13458;DHT22;6801;53.018;11.560;2023-06-14T08:18:45;23.10;43.90
13458;DHT22;6801;53.018;11.560;2023-06-14T08:21:12;23.20;43.90
13458;DHT22;6801;53.018;11.560;2023-06-14T08:23:40;23.30;43.80
13458;DHT22;6801;53.018;11.560;2023-06-14T08:26:08;23.30;43.80
13458;DHT22;6801;53.018;11.560;2023-06-14T08:28:36;23.30;43.30
13458;DHT22;6801;53.018;11.560;2023-06-14T08:31:03;23.40;43.40
13458;DHT22;6801;53.018;11.560;2023-06-14T08:33:32;23.40;43.70
13458;DHT22;6801;53.018;11.560;2023-06-14T08:36:00;23.50;43.80
13458;DHT22;6801;53.018;11.560;2023-06-14T08:38:27;23.50;43.80
13458;DHT22;6801;53.018;11.560;2023-06-14T08:40:57;23.60;43.70
13458;DHT22;6801;53.018;11.560;2023-06-14T08:43:24;23.70;43.00
13458;DHT22;6801;53.018;11.560;2023-06-14T08:45:56;23.80;43.00
13458;DHT22;6801;53.018;11.560;2023-06-14T08:48:26;23.90;42.80
13458;DHT22;6801;53.018;11.560;2023-06-14T08:50:55;24.00;42.90
13458;DHT22;6801;53.018;11.560;2023-06-14T08:53:28;24.10;42.00
13458;DHT22;6801;53.018;11.560;2023-06-14T08:55:57;24.20;42.30
13458;DHT22;6801;53.018;11.560;2023-06-14T08:58:26;24.40;41.70
13458;DHT22;6801;53.018;11.560;2023-06-14T09:00:55;24.50;41.00
13458;DHT22;6801;53.018;11.560;2023-06-14T09:03:23;24.50;40.50
13458;DHT22;6801;53.018;11.560;2023-06-14T09:05:57;24.60;40.20
13458;DHT22;6801;53.018;11.560;2023-06-14T09:08:26;24.70;40.00
13458;DHT22;6801;53.018;11.560;2023-06-14T09:10:56;24.60;40.00
13458;DHT22;6801;53.018;11.560;2023-06-14T09:13:23;24.60;40.40
13458;DHT22;6801;53.018;11.560;2023-06-14T09:15:50;24.70;39.70
13458;DHT22;6801;53.018;11.560;2023-06-14T09:18:17;24.70;40.00
13458;DHT22;6801;53.018;11.560;2023-06-14T09:20:46;24.90;39.70
13458;DHT22;6801;53.018;11.560;2023-06-14T09:23:20;24.90;39.50
13458;DHT22;6801;53.018;11.560;2023-06-14T09:25:48;25.00;39.50
13458;DHT22;6801;53.018;11.560;2023-06-14T09:28:15;25.10;38.90
13458;DHT22;6801;53.018;11.560;2023-06-14T09:30:42;25.20;38.90
13458;DHT22;6801;53.018;11.560;2023-06-14T09:33:09;25.40;38.20
13458;DHT22;6801;53.018;11.560;2023-06-14T09:35:36;25.40;37.60
13458;DHT22;6801;53.018;11.560;2023-06-14T09:38:03;25.40;38.30
13458;DHT22;6801;53.018;11.560;2023-06-14T09:40:35;25.50;38.10
13458;DHT22;6801;53.018;11.560;2023-06-14T09:43:05;25.60;37.10
13458;DHT22;6801;53.018;11.560;2023-06-14T09:45:33;25.60;36.90
13458;DHT22;6801;53.018;11.560;2023-06-14T09:48:01;25.80;36.40
13458;DHT22;6801;53.018;11.560;2023-06-14T09:50:28;25.90;36.20
13458;DHT22;6801;53.018;11.560;2023-06-14T09:52:59;26.00;35.50
13458;DHT22;6801;53.018;11.560;2023-06-14T09:55:30;26.00;35.90
13458;DHT22;6801;53.018;11.560;2023-06-14T09:58:00;26.10;35.40
13458;DHT22;6801;53.018;11.560;2023-06-14T10:00:27;26.30;35.20
13458;DHT22;6801;53.018;11.560;2023-06-14T10:02:58;26.40;35.40
13458;DHT22;6801;53.018;11.560;2023-06-14T10:05:28;26.40;35.30
13458;DHT22;6801;53.018;11.560;2023-06-14T10:07:59;26.40;35.20
13458;DHT22;6801;53.018;11.560;2023-06-14T10:10:26;26.50;34.00
13458;DHT22;6801;53.018;11.560;2023-06-14T10:12:54;26.50;34.10
13458;DHT22;6801;53.018;11.560;2023-06-14T10:15:30;26.50;33.90
13458;DHT22;6801;53.018;11.560;2023-06-14T10:18:04;26.60;34.00
13458;DHT22;6801;53.018;11.560;2023-06-14T10:20:38;26.70;33.30
13458;DHT22;6801;53.018;11.560;2023-06-14T10:23:10;26.70;33.00
13458;DHT22;6801;53.018;11.560;2023-06-14T10:25:39;26.70;33.50
13458;DHT22;6801;53.018;11.560;2023-06-14T10:28:16;26.80;32.70
13458;DHT22;6801;53.018;11.560;2023-06-14T10:31:05;26.80;33.20
13458;DHT22;6801;53.018;11.560;2023-06-14T10:33:33;26.90;33.10
13458;DHT22;6801;53.018;11.560;2023-06-14T10:36:23;27.00;32.40
13458;DHT22;6801;53.018;11.560;2023-06-14T10:38:57;27.20;31.80
13458;DHT22;6801;53.018;11.560;2023-06-14T10:41:27;27.20;31.60
13458;DHT22;6801;53.018;11.560;2023-06-14T10:46:58;27.10;31.80
13458;DHT22;6801;53.018;11.560;2023-06-14T10:49:38;27.00;32.60
13458;DHT22;6801;53.018;11.560;2023-06-14T10:52:11;27.00;32.50
13458;DHT22;6801;53.018;11.560;2023-06-14T10:55:02;27.00;32.80
13458;DHT22;6801;53.018;11.560;2023-06-14T10:57:30;27.10;32.40
13458;DHT22;6801;53.018;11.560;2023-06-14T10:59:58;27.10;32.70
13458;DHT22;6801;53.018;11.560;2023-06-14T11:02:51;27.10;32.40
13458;DHT22;6801;53.018;11.560;2023-06-14T11:05:24;27.20;32.20
13458;DHT22;6801;53.018;11.560;2023-06-14T11:08:03;27.20;32.40
13458;DHT22;6801;53.018;11.560;2023-06-14T11:10:38;27.20;31.60
13458;DHT22;6801;53.018;11.560;2023-06-14T11:13:05;27.10;32.10
13458;DHT22;6801;53.018;11.560;2023-06-14T11:15:34;27.00;32.30
13458;DHT22;6801;53.018;11.560;2023-06-14T11:18:04;27.10;32.60
13458;DHT22;6801;53.018;11.560;2023-06-14T11:20:32;27.30;31.30
13458;DHT22;6801;53.018;11.560;2023-06-14T11:23:00;27.30;31.20
13458;DHT22;6801;53.018;11.560;2023-06-14T11:25:27;27.30;31.00
13458;DHT22;6801;53.018;11.560;2023-06-14T11:27:55;27.20;31.50
13458;DHT22;6801;53.018;11.560;2023-06-14T11:30:23;27.20;31.90
13458;DHT22;6801;53.018;11.560;2023-06-14T11:32:52;27.20;31.20
13458;DHT22;6801;53.018;11.560;2023-06-14T11:35:22;27.30;31.00
13458;DHT22;6801;53.018;11.560;2023-06-14T11:37:49;27.30;30.80
13458;DHT22;6801;53.018;11.560;2023-06-14T11:40:19;27.40;30.50
13458;DHT22;6801;53.018;11.560;2023-06-14T11:42:46;27.50;30.10
13458;DHT22;6801;53.018;11.560;2023-06-14T11:45:13;27.50;30.20
13458;DHT22;6801;53.018;11.560;2023-06-14T11:47:40;27.40;30.50
13458;DHT22;6801;53.018;11.560;2023-06-14T11:50:09;27.40;30.60
13458;DHT22;6801;53.018;11.560;2023-06-14T11:52:38;27.50;30.60
13458;DHT22;6801;53.018;11.560;2023-06-14T11:55:06;27.60;29.50
13458;DHT22;6801;53.018;11.560;2023-06-14T11:57:34;27.70;29.80
13458;DHT22;6801;53.018;11.560;2023-06-14T12:00:04;27.80;28.80
13458;DHT22;6801;53.018;11.560;2023-06-14T12:02:37;27.70;29.50
13458;DHT22;6801;53.018;11.560;2023-06-14T12:05:07;27.80;30.10
13458;DHT22;6801;53.018;11.560;2023-06-14T12:07:37;27.90;28.90
13458;DHT22;6801;53.018;11.560;2023-06-14T12:10:07;28.00;28.90
13458;DHT22;6801;53.018;11.560;2023-06-14T12:12:36;27.90;28.50
13458;DHT22;6801;53.018;11.560;2023-06-14T12:15:04;27.80;29.30
13458;DHT22;6801;53.018;11.560;2023-06-14T12:17:32;27.70;29.50
13458;DHT22;6801;53.018;11.560;2023-06-14T12:20:05;27.90;29.40
13458;DHT22;6801;53.018;11.560;2023-06-14T12:22:37;27.80;29.60
13458;DHT22;6801;53.018;11.560;2023-06-14T12:25:04;27.80;29.50
13458;DHT22;6801;53.018;11.560;2023-06-14T12:27:31;28.00;29.00
13458;DHT22;6801;53.018;11.560;2023-06-14T12:29:59;28.10;29.40
13458;DHT22;6801;53.018;11.560;2023-06-14T12:32:27;28.10;28.70
13458;DHT22;6801;53.018;11.560;2023-06-14T12:34:54;28.20;28.60
13458;DHT22;6801;53.018;11.560;2023-06-14T12:37:21;28.00;28.70
13458;DHT22;6801;53.018;11.560;2023-06-14T12:39:49;28.00;29.00
13458;DHT22;6801;53.018;11.560;2023-06-14T12:42:17;27.90;28.90
13458;DHT22;6801;53.018;11.560;2023-06-14T12:44:44;27.70;29.20
13458;DHT22;6801;53.018;11.560;2023-06-14T12:47:11;27.70;29.60
13458;DHT22;6801;53.018;11.560;2023-06-14T12:49:39;27.70;29.80
13458;DHT22;6801;53.018;11.560;2023-06-14T12:52:08;27.80;30.00
13458;DHT22;6801;53.018;11.560;2023-06-14T12:54:35;27.90;30.50
13458;DHT22;6801;53.018;11.560;2023-06-14T12:57:04;28.10;29.50
13458;DHT22;6801;53.018;11.560;2023-06-14T12:59:31;28.20;29.40
13458;DHT22;6801;53.018;11.560;2023-06-14T13:02:09;28.30;29.20
13458;DHT22;6801;53.018;11.560;2023-06-14T13:04:37;28.30;29.20
13458;DHT22;6801;53.018;11.560;2023-06-14T13:07:05;28.20;28.80
13458;DHT22;6801;53.018;11.560;2023-06-14T13:09:33;28.20;29.30
13458;DHT22;6801;53.018;11.560;2023-06-14T13:12:01;28.30;29.10
13458;DHT22;6801;53.018;11.560;2023-06-14T13:14:30;28.20;29.10
13458;DHT22;6801;53.018;11.560;2023-06-14T13:16:57;28.30;28.70
13458;DHT22;6801;53.018;11.560;2023-06-14T13:19:25;28.30;29.60
13458;DHT22;6801;53.018;11.560;2023-06-14T13:21:52;28.40;29.00
13458;DHT22;6801;53.018;11.560;2023-06-14T13:24:19;28.40;29.10
13458;DHT22;6801;53.018;11.560;2023-06-14T13:26:46;28.50;28.50
13458;DHT22;6801;53.018;11.560;2023-06-14T13:29:13;28.60;27.20
13458;DHT22;6801;53.018;11.560;2023-06-14T13:31:41;28.50;27.80
13458;DHT22;6801;53.018;11.560;2023-06-14T13:34:08;28.50;27.90
13458;DHT22;6801;53.018;11.560;2023-06-14T13:36:35;28.50;28.00
13458;DHT22;6801;53.018;11.560;2023-06-14T13:39:02;28.70;27.60
13458;DHT22;6801;53.018;11.560;2023-06-14T13:41:29;28.70;28.30
13458;DHT22;6801;53.018;11.560;2023-06-14T13:43:59;28.80;28.20
13458;DHT22;6801;53.018;11.560;2023-06-14T13:46:26;29.00;27.40
13458;DHT22;6801;53.018;11.560;2023-06-14T13:48:55;29.00;27.10
13458;DHT22;6801;53.018;11.560;2023-06-14T13:51:22;29.10;27.50
13458;DHT22;6801;53.018;11.560;2023-06-14T13:53:50;29.10;27.30
13458;DHT22;6801;53.018;11.560;2023-06-14T13:56:18;29.10;27.10
13458;DHT22;6801;53.018;11.560;2023-06-14T13:58:45;29.10;27.80
13458;DHT22;6801;53.018;11.560;2023-06-14T14:01:12;29.20;27.40
13458;DHT22;6801;53.018;11.560;2023-06-14T14:03:39;29.20;27.40
13458;DHT22;6801;53.018;11.560;2023-06-14T14:06:07;29.20;27.40
13458;DHT22;6801;53.018;11.560;2023-06-14T14:08:35;29.20;26.90
13458;DHT22;6801;53.018;11.560;2023-06-14T14:11:02;29.30;26.90
13458;DHT22;6801;53.018;11.560;2023-06-14T14:13:29;29.30;26.20
13458;DHT22;6801;53.018;11.560;2023-06-14T14:15:56;29.20;26.60
13458;DHT22;6801;53.018;11.560;2023-06-14T14:18:23;29.30;26.60
13458;DHT22;6801;53.018;11.560;2023-06-14T14:20:50;29.30;27.20
13458;DHT22;6801;53.018;11.560;2023-06-14T14:23:19;29.30;27.40
13458;DHT22;6801;53.018;11.560;2023-06-14T14:25:46;29.30;27.40
13458;DHT22;6801;53.018;11.560;2023-06-14T14:28:13;29.40;27.60
13458;DHT22;6801;53.018;11.560;2023-06-14T14:30:41;29.40;27.30
13458;DHT22;6801;53.018;11.560;2023-06-14T14:33:08;29.40;26.80
13458;DHT22;6801;53.018;11.560;2023-06-14T14:35:42;29.40;27.00
13458;DHT22;6801;53.018;11.560;2023-06-14T14:38:10;29.30;26.90
13458;DHT22;6801;53.018;11.560;2023-06-14T14:40:39;29.30;27.20
13458;DHT22;6801;53.018;11.560;2023-06-14T14:43:06;29.40;26.70
13458;DHT22;6801;53.018;11.560;2023-06-14T14:45:33;29.40;26.40
13458;DHT22;6801;53.018;11.560;2023-06-14T14:48:01;29.40;26.80
13458;DHT22;6801;53.018;11.560;2023-06-14T14:50:28;29.50;26.80
13458;DHT22;6801;53.018;11.560;2023-06-14T14:52:55;29.50;25.80
13458;DHT22;6801;53.018;11.560;2023-06-14T14:55:23;29.50;25.90
13458;DHT22;6801;53.018;11.560;2023-06-14T14:57:52;29.50;26.30
13458;DHT22;6801;53.018;11.560;2023-06-14T15:00:19;29.40;26.70
13458;DHT22;6801;53.018;11.560;2023-06-14T15:02:46;29.40;26.70
13458;DHT22;6801;53.018;11.560;2023-06-14T15:05:13;29.40;26.80
13458;DHT22;6801;53.018;11.560;2023-06-14T15:07:40;29.50;26.40
13458;DHT22;6801;53.018;11.560;2023-06-14T15:10:07;29.50;25.70
13458;DHT22;6801;53.018;11.560;2023-06-14T15:12:35;29.50;25.90
13458;DHT22;6801;53.018;11.560;2023-06-14T15:15:04;29.50;26.10
13458;DHT22;6801;53.018;11.560;2023-06-14T15:17:31;29.50;26.30
13458;DHT22;6801;53.018;11.560;2023-06-14T15:19:58;29.50;26.40
13458;DHT22;6801;53.018;11.560;2023-06-14T15:22:25;29.70;26.30
13458;DHT22;6801;53.018;11.560;2023-06-14T15:24:52;29.70;26.70
13458;DHT22;6801;53.018;11.560;2023-06-14T15:27:19;29.80;26.90
13458;DHT22;6801;53.018;11.560;2023-06-14T15:29:46;30.00;25.30
13458;DHT22;6801;53.018;11.560;2023-06-14T15:32:14;29.90;25.40
13458;DHT22;6801;53.018;11.560;2023-06-14T15:34:41;29.70;25.70
13458;DHT22;6801;53.018;11.560;2023-06-14T15:37:08;29.70;25.70
13458;DHT22;6801;53.018;11.560;2023-06-14T15:39:35;29.80;25.50
13458;DHT22;6801;53.018;11.560;2023-06-14T15:42:03;29.70;25.60